Terminal Aerodrome Forecast
Issued by NWS Boston, MA

Home | Current Version | Previous Version | Text Only | Print | Product List | Glossary On
Versions: 1 2 3 4 5 6 7 8 9 10 11 12 13 14 15 16 17 18 19 20 21 22 23 24 25 26 27 28 29 30 31 32 33 34 35 36 37 38 39 40 41 42 43 44 45
000
FTUS41 KBOX 292330
TAFBDL
TAF
KBDL 292330Z 3000/3106 16004KT P6SM BKN070
     FM300400 17004KT 3SM -SN OVC035
     FM300700 17004KT 2SM -SN OVC020
     FM301400 24005KT 2SM -SN OVC015
     FM301600 29006KT P6SM OVC020
     FM302000 32010G22KT P6SM OVC020=

USA.gov is the U.S. government's official web portal to all federal, state and local government web resources and services.